Time;durP1;ratioP1;P1;durP2;ratioP2;P2;SDS_P1;SDS_P2;PMS_P1;PMS_P2;Temp;Humidity;BMP_temperature;BMP_pressure;BME280_temperature;BME280_humidity;BME280_pressure;Samples;Min_cycle;Max_cycle;Signal;HPM_P1;HPM_P2
2022/06/29 00:01:17;;;;;;;4.30;2.22;;;17.00;99.90;;;;;;5066578;28;20040;-64
2022/06/29 00:03:44;;;;;;;3.78;2.83;;;17.00;99.90;;;;;;5066218;28;20075;-64
2022/06/29 00:06:11;;;;;;;2.45;2.17;;;17.00;99.90;;;;;;5065985;28;20049;-64
2022/06/29 00:08:36;;;;;;;3.58;2.38;;;17.00;99.90;;;;;;5067231;28;20036;-64
2022/06/29 00:11:03;;;;;;;3.58;2.13;;;17.30;99.90;;;;;;5065553;28;20051;-64
2022/06/29 00:13:28;;;;;;;4.22;2.03;;;16.90;99.90;;;;;;5066563;28;20141;-64
2022/06/29 00:15:54;;;;;;;4.93;2.63;;;16.90;99.90;;;;;;5065518;28;20044;-64
2022/06/29 00:18:20;;;;;;;3.00;2.40;;;16.90;99.90;;;;;;5066035;28;20090;-64
2022/06/29 00:20:45;;;;;;;11.57;2.60;;;16.80;99.90;;;;;;5065955;28;20044;-65
2022/06/29 00:23:11;;;;;;;3.85;2.70;;;16.80;99.90;;;;;;5081195;28;20083;-64
2022/06/29 00:25:37;;;;;;;3.40;2.05;;;16.80;99.90;;;;;;5066824;28;20040;-65
2022/06/29 00:28:03;;;;;;;2.88;2.20;;;16.90;99.90;;;;;;5065796;28;20090;-64
2022/06/29 00:30:29;;;;;;;3.75;2.28;;;16.80;99.90;;;;;;5065785;28;20407;-65
2022/06/29 00:32:54;;;;;;;5.82;2.20;;;16.80;99.90;;;;;;5065800;28;20051;-65
2022/06/29 00:35:20;;;;;;;2.63;2.40;;;16.80;99.90;;;;;;5065864;28;20260;-64
2022/06/29 00:37:45;;;;;;;3.45;2.20;;;16.80;99.90;;;;;;5065287;28;20101;-64
2022/06/29 00:40:12;;;;;;;2.42;2.22;;;16.70;99.90;;;;;;5065924;28;20040;-64
2022/06/29 00:42:37;;;;;;;5.32;2.75;;;16.70;99.90;;;;;;5066592;28;20048;-64
2022/06/29 00:45:04;;;;;;;3.83;2.58;;;16.70;99.90;;;;;;5063448;28;20491;-64
2022/06/29 00:47:30;;;;;;;3.22;2.75;;;16.70;99.90;;;;;;5064927;28;20052;-64
2022/06/29 00:49:56;;;;;;;2.80;2.60;;;16.60;99.90;;;;;;5064331;28;20044;-64
2022/06/29 00:52:25;;;;;;;3.90;2.50;;;16.60;99.90;;;;;;5065210;28;20045;-64
2022/06/29 00:54:57;;;;;;;4.35;2.33;;;16.60;99.90;;;;;;5064367;28;20442;-64
2022/06/29 00:57:25;;;;;;;2.88;2.00;;;16.60;99.90;;;;;;5064409;28;20095;-64
2022/06/29 00:59:53;;;;;;;2.67;2.28;;;16.50;99.90;;;;;;5064803;28;20052;-64
2022/06/29 01:02:25;;;;;;;4.05;2.38;;;16.50;99.90;;;;;;5065670;28;20091;-64
2022/06/29 01:04:51;;;;;;;4.45;2.42;;;16.50;99.90;;;;;;5064152;28;20048;-64
2022/06/29 01:07:19;;;;;;;2.47;2.28;;;16.40;99.90;;;;;;5064778;28;20540;-64
2022/06/29 01:09:45;;;;;;;2.55;2.35;;;16.50;99.90;;;;;;5065895;28;20036;-64
2022/06/29 01:12:12;;;;;;;3.53;2.10;;;16.40;99.90;;;;;;5063699;28;20500;-65
2022/06/29 01:14:43;;;;;;;4.15;2.80;;;16.40;99.90;;;;;;5066228;28;20554;-64
2022/06/29 01:17:10;;;;;;;5.73;2.27;;;16.40;99.90;;;;;;5065855;28;20041;-64
2022/06/29 01:19:37;;;;;;;3.17;2.22;;;16.40;99.90;;;;;;5065791;28;20278;-64
2022/06/29 01:22:16;;;;;;;3.00;2.80;;;16.40;99.90;;;;;;5064175;28;20052;-64
2022/06/29 01:24:44;;;;;;;6.82;3.25;;;16.30;99.90;;;;;;5065461;28;20056;-64
2022/06/29 01:27:10;;;;;;;3.15;2.83;;;16.30;99.90;;;;;;5064429;28;20048;-64
2022/06/29 01:29:36;;;;;;;3.83;2.55;;;16.30;99.90;;;;;;5066103;28;20047;-64
2022/06/29 01:32:02;;;;;;;7.20;2.90;;;16.20;99.90;;;;;;5065172;28;20044;-64
2022/06/29 01:34:30;;;;;;;3.50;2.53;;;16.20;99.90;;;;;;5064878;28;20563;-64
2022/06/29 01:36:56;;;;;;;3.67;2.83;;;16.20;99.90;;;;;;5065200;28;20047;-63
2022/06/29 01:39:22;;;;;;;6.32;2.78;;;16.10;99.90;;;;;;5065416;28;20051;-64
2022/06/29 01:41:47;;;;;;;4.43;2.97;;;15.40;99.90;;;;;;5064380;28;20400;-64
2022/06/29 01:44:13;;;;;;;3.15;2.53;;;16.10;99.90;;;;;;5066952;28;20403;-64
2022/06/29 01:46:38;;;;;;;4.43;2.42;;;16.10;99.90;;;;;;5069285;28;20044;-64
2022/06/29 01:49:05;;;;;;;2.65;2.45;;;16.10;99.90;;;;;;5068592;28;20523;-64
2022/06/29 01:51:31;;;;;;;3.00;2.72;;;16.00;99.90;;;;;;5067728;28;20394;-64
2022/06/29 01:53:57;;;;;;;3.30;3.00;;;16.10;99.90;;;;;;5067307;28;20049;-64
2022/06/29 01:56:23;;;;;;;3.60;3.30;;;16.10;99.90;;;;;;5067862;28;20454;-64
2022/06/29 01:58:48;;;;;;;4.30;3.33;;;16.00;99.90;;;;;;5067362;28;20063;-64
2022/06/29 02:01:14;;;;;;;10.50;3.83;;;16.00;99.90;;;;;;5067379;28;20049;-64
2022/06/29 02:03:39;;;;;;;3.60;3.30;;;16.00;99.90;;;;;;5068510;28;20059;-64
2022/06/29 02:06:05;;;;;;;4.80;3.03;;;16.00;99.90;;;;;;5068889;28;20148;-64
2022/06/29 02:08:31;;;;;;;3.67;3.22;;;16.00;99.90;;;;;;5066706;28;20091;-64
2022/06/29 02:10:58;;;;;;;3.42;3.00;;;15.90;99.90;;;;;;5066986;28;20056;-64
2022/06/29 02:13:23;;;;;;;4.70;3.45;;;15.90;99.90;;;;;;5068731;28;20045;-64
2022/06/29 02:15:49;;;;;;;4.78;3.83;;;16.00;99.90;;;;;;5067690;28;20563;-64
2022/06/29 02:18:15;;;;;;;4.03;3.63;;;15.90;99.90;;;;;;5068309;28;20060;-64
2022/06/29 02:20:40;;;;;;;4.35;3.25;;;15.90;99.90;;;;;;5068539;28;20550;-64
2022/06/29 02:23:06;;;;;;;4.82;3.78;;;15.90;99.90;;;;;;5067820;28;20488;-64
2022/06/29 02:25:32;;;;;;;3.47;3.20;;;15.90;99.90;;;;;;5068202;28;20407;-64
2022/06/29 02:27:57;;;;;;;5.68;3.22;;;16.00;99.90;;;;;;5066669;28;20127;-64
2022/06/29 02:34:43;;;;;;;5.57;3.58;;;16.00;99.90;;;;;;5067610;28;20457;-65
2022/06/29 02:35:53;;;;;;;6.65;4.03;;;15.90;99.90;;;;;;5067738;28;20045;-64
2022/06/29 02:38:19;;;;;;;6.15;3.80;;;15.90;99.90;;;;;;5065932;28;20052;-64
2022/06/29 02:40:45;;;;;;;4.22;3.15;;;15.90;99.90;;;;;;5068187;28;20407;-64
2022/06/29 02:43:10;;;;;;;8.82;3.70;;;16.00;99.90;;;;;;5068023;28;20048;-64
2022/06/29 02:45:36;;;;;;;6.40;4.10;;;16.00;99.90;;;;;;5067516;28;20438;-64
2022/06/29 02:48:02;;;;;;;4.10;3.67;;;16.00;99.90;;;;;;5066139;28;20052;-64
2022/06/29 02:50:28;;;;;;;5.75;3.60;;;16.00;99.90;;;;;;5066365;28;20060;-63
2022/06/29 02:52:53;;;;;;;5.47;4.30;;;16.10;99.90;;;;;;5067028;28;20071;-64
2022/06/29 02:55:19;;;;;;;4.25;3.92;;;15.90;99.90;;;;;;5067421;28;20484;-64
2022/06/29 02:57:45;;;;;;;6.88;4.22;;;16.00;99.90;;;;;;5066851;28;20044;-64
2022/06/29 03:00:15;;;;;;;4.15;3.85;;;16.00;99.90;;;;;;5067415;28;20462;-63
2022/06/29 03:02:40;;;;;;;4.00;3.65;;;16.00;99.90;;;;;;5066295;28;20185;-64
2022/06/29 03:05:07;;;;;;;6.75;3.90;;;16.00;99.90;;;;;;5066907;28;20048;-64
2022/06/29 03:07:33;;;;;;;4.97;4.05;;;16.00;99.90;;;;;;5067419;28;20045;-64
2022/06/29 03:09:58;;;;;;;4.22;3.83;;;16.00;99.90;;;;;;5067260;28;20518;-64
2022/06/29 03:12:24;;;;;;;6.28;4.20;;;16.00;99.90;;;;;;5066666;28;20037;-64
2022/06/29 03:14:49;;;;;;;4.45;4.05;;;16.00;99.90;;;;;;5067265;28;20610;-64
2022/06/29 03:17:15;;;;;;;5.15;3.95;;;16.00;99.90;;;;;;5067146;28;20127;-64
2022/06/29 03:19:41;;;;;;;6.05;3.53;;;16.00;99.90;;;;;;5066389;28;20045;-64
2022/06/29 03:22:07;;;;;;;4.35;3.95;;;16.00;99.90;;;;;;5066161;28;20123;-64
2022/06/29 03:24:32;;;;;;;4.80;4.20;;;16.00;99.90;;;;;;5067296;28;20079;-64
2022/06/29 03:26:58;;;;;;;7.97;4.50;;;16.00;99.90;;;;;;5065078;28;20227;-65
2022/06/29 03:29:24;;;;;;;4.50;3.83;;;16.00;99.90;;;;;;5066977;28;20040;-64
2022/06/29 03:31:50;;;;;;;4.88;4.50;;;16.00;99.90;;;;;;5066788;28;20419;-64
2022/06/29 03:34:15;;;;;;;5.15;3.50;;;16.00;99.90;;;;;;5066705;28;20048;-64
2022/06/29 03:36:41;;;;;;;6.40;4.25;;;16.00;99.90;;;;;;5066914;28;20488;-64
2022/06/29 03:39:06;;;;;;;4.95;3.50;;;16.20;99.90;;;;;;5067137;28;20166;-64
2022/06/29 03:41:32;;;;;;;4.38;3.97;;;15.90;99.90;;;;;;5064902;28;20134;-63
2022/06/29 03:43:58;;;;;;;4.50;4.10;;;16.30;99.90;;;;;;5066835;28;20742;-64
2022/06/29 03:46:23;;;;;;;4.60;3.83;;;15.80;99.90;;;;;;5065314;28;20452;-64
2022/06/29 03:48:49;;;;;;;4.57;4.18;;;15.80;99.90;;;;;;5065614;28;20119;-64
2022/06/29 03:51:15;;;;;;;6.65;3.55;;;16.10;99.90;;;;;;5066820;28;20464;-64
2022/06/29 03:53:41;;;;;;;4.53;3.88;;;15.80;99.90;;;;;;5066863;28;20043;-64
2022/06/29 03:56:06;;;;;;;3.80;3.30;;;15.80;99.90;;;;;;5066273;28;20115;-64
2022/06/29 03:58:32;;;;;;;6.55;3.95;;;15.80;99.90;;;;;;5066493;28;20088;-64
2022/06/29 04:00:57;;;;;;;4.05;3.70;;;15.80;99.90;;;;;;5065877;28;20052;-64
2022/06/29 04:03:23;;;;;;;3.85;3.55;;;15.80;99.90;;;;;;5066404;28;20395;-64
2022/06/29 04:05:48;;;;;;;3.72;3.40;;;15.80;99.90;;;;;;5066130;28;20051;-64
2022/06/29 04:08:14;;;;;;;3.63;3.20;;;15.90;99.90;;;;;;5064004;28;20049;-65
2022/06/29 04:10:40;;;;;;;4.07;3.33;;;15.90;99.90;;;;;;5066390;28;20127;-65
2022/06/29 04:13:05;;;;;;;5.25;3.63;;;15.90;99.90;;;;;;5066518;28;20052;-64
2022/06/29 04:15:31;;;;;;;4.38;3.90;;;15.90;99.90;;;;;;5065503;28;20487;-64
2022/06/29 04:17:56;;;;;;;4.45;3.67;;;15.90;99.90;;;;;;5065958;28;20048;-64
2022/06/29 04:23:06;;;;;;;4.68;4.00;;;15.90;99.90;;;;;;5065710;28;20078;-64
2022/06/29 04:25:32;;;;;;;4.78;4.20;;;15.90;99.90;;;;;;5065802;28;20053;-64
2022/06/29 04:27:57;;;;;;;5.10;4.03;;;15.90;99.90;;;;;;5065953;28;20410;-64
2022/06/29 04:30:23;;;;;;;6.05;3.95;;;15.90;99.90;;;;;;5064083;28;20298;-64
2022/06/29 04:32:49;;;;;;;5.57;4.03;;;15.90;99.90;;;;;;5065656;28;20055;-64
2022/06/29 04:35:14;;;;;;;4.20;3.78;;;15.90;99.90;;;;;;5066058;28;20492;-64
2022/06/29 04:37:40;;;;;;;5.85;4.18;;;15.90;99.90;;;;;;5065469;28;20166;-64
2022/06/29 04:40:06;;;;;;;4.63;4.22;;;16.00;99.90;;;;;;5065016;28;20083;-64
2022/06/29 04:42:31;;;;;;;4.75;4.22;;;16.10;99.90;;;;;;5065906;28;20522;-64
2022/06/29 04:44:57;;;;;;;5.00;4.55;;;16.10;99.90;;;;;;5064925;28;20048;-64
2022/06/29 04:47:22;;;;;;;4.30;4.00;;;16.20;99.90;;;;;;5066034;28;20048;-64
2022/06/29 04:49:48;;;;;;;4.72;4.35;;;16.20;99.90;;;;;;5064163;28;20121;-64
2022/06/29 04:52:14;;;;;;;4.93;4.53;;;16.20;99.90;;;;;;5065038;28;20042;-64
2022/06/29 04:54:39;;;;;;;5.28;4.88;;;16.20;99.90;;;;;;5065848;28;20040;-64
2022/06/29 04:57:09;;;;;;;5.70;5.10;;;16.30;99.90;;;;;;5064166;28;20711;-64
2022/06/29 04:59:34;;;;;;;5.32;4.30;;;16.30;99.90;;;;;;5066019;28;20052;-64
2022/06/29 05:02:00;;;;;;;4.93;4.40;;;16.40;99.90;;;;;;5065362;28;20393;-64
2022/06/29 05:04:26;;;;;;;4.53;4.13;;;16.40;99.90;;;;;;5065041;28;20147;-64
2022/06/29 05:06:51;;;;;;;5.75;4.50;;;16.40;99.90;;;;;;5065472;28;20050;-64
2022/06/29 05:09:17;;;;;;;5.40;4.90;;;16.40;99.90;;;;;;5065526;28;20044;-64
2022/06/29 05:11:42;;;;;;;5.35;4.85;;;16.50;99.90;;;;;;5064881;28;20041;-64
2022/06/29 05:14:11;;;;;;;9.98;5.47;;;16.50;99.90;;;;;;5065637;28;20056;-64
2022/06/29 05:16:38;;;;;;;5.50;4.70;;;16.50;99.90;;;;;;5066040;28;20179;-64
2022/06/29 05:19:04;;;;;;;5.55;4.30;;;16.60;99.90;;;;;;5066692;28;20102;-64
2022/06/29 05:21:30;;;;;;;6.50;4.85;;;16.60;99.90;;;;;;5069376;28;20492;-64
2022/06/29 05:23:57;;;;;;;19.20;5.35;;;16.60;99.90;;;;;;5069315;28;20045;-64
2022/06/29 05:26:22;;;;;;;5.70;4.60;;;17.00;99.90;;;;;;5068897;28;20048;-64
2022/06/29 05:28:48;;;;;;;5.25;4.85;;;16.70;99.90;;;;;;5069033;28;20579;-64
2022/06/29 05:31:14;;;;;;;6.78;4.28;;;16.70;99.90;;;;;;5068210;28;20044;-64
2022/06/29 05:33:40;;;;;;;5.80;4.85;;;16.80;99.90;;;;;;5067258;28;20484;-64
2022/06/29 05:36:07;;;;;;;4.75;4.28;;;16.90;99.90;;;;;;5069506;28;20109;-64
2022/06/29 05:38:33;;;;;;;5.35;4.82;;;16.90;99.90;;;;;;5069336;28;20045;-64
2022/06/29 05:41:02;;;;;;;4.25;3.85;;;16.90;99.90;;;;;;5068191;28;20056;-64
2022/06/29 05:43:29;;;;;;;4.43;4.03;;;16.90;99.90;;;;;;5069114;28;20097;-64
2022/06/29 05:45:55;;;;;;;4.40;4.00;;;17.00;99.90;;;;;;5068966;28;20048;-64
2022/06/29 05:48:21;;;;;;;5.57;4.47;;;17.10;99.90;;;;;;5068308;28;20086;-64
2022/06/29 05:50:46;;;;;;;4.78;4.28;;;17.20;99.90;;;;;;5068770;28;20056;-64
2022/06/29 05:53:12;;;;;;;5.00;4.50;;;17.20;99.90;;;;;;5068800;28;20045;-64
2022/06/29 05:55:39;;;;;;;5.47;3.38;;;17.40;99.90;;;;;;5068718;28;20352;-64
2022/06/29 05:58:05;;;;;;;4.38;3.50;;;17.50;99.90;;;;;;5068762;28;20360;-64
2022/06/29 06:00:31;;;;;;;5.35;3.80;;;17.50;99.90;;;;;;5068292;28;20070;-64
2022/06/29 06:02:56;;;;;;;4.57;3.80;;;17.50;99.90;;;;;;5068644;28;20182;-64
2022/06/29 06:05:22;;;;;;;8.80;3.72;;;17.70;99.90;;;;;;5068642;28;20491;-64
2022/06/29 06:07:47;;;;;;;7.60;3.92;;;17.70;99.90;;;;;;5067752;28;20364;-64
2022/06/29 06:10:13;;;;;;;3.80;3.40;;;17.80;99.90;;;;;;5068580;28;20513;-64
2022/06/29 06:12:39;;;;;;;4.97;3.72;;;17.90;99.90;;;;;;5068293;28;20040;-64
2022/06/29 06:15:05;;;;;;;4.30;3.50;;;18.20;99.90;;;;;;5068094;28;20045;-64
2022/06/29 06:17:32;;;;;;;3.50;3.20;;;18.10;99.90;;;;;;5067583;28;20458;-64
2022/06/29 06:19:58;;;;;;;9.05;3.58;;;18.20;99.90;;;;;;5067996;28;20058;-64
2022/06/29 06:22:24;;;;;;;3.60;3.30;;;18.30;99.90;;;;;;5067726;28;20045;-64
2022/06/29 06:24:50;;;;;;;5.07;3.60;;;18.50;99.90;;;;;;5067775;28;20072;-64
2022/06/29 06:27:16;;;;;;;3.47;3.15;;;18.30;99.90;;;;;;5066852;28;20133;-64
2022/06/29 06:29:42;;;;;;;5.50;3.38;;;18.40;99.90;;;;;;5066876;28;20040;-64
2022/06/29 06:32:08;;;;;;;5.15;3.60;;;18.40;99.90;;;;;;5050411;28;20135;-64
2022/06/29 06:34:34;;;;;;;7.68;3.30;;;18.40;99.90;;;;;;5068699;28;20398;-64
2022/06/29 06:36:59;;;;;;;3.00;2.80;;;18.50;99.90;;;;;;5067328;28;20041;-64
2022/06/29 06:39:25;;;;;;;3.85;2.90;;;18.60;99.90;;;;;;5068363;28;20045;-64
2022/06/29 06:41:51;;;;;;;3.13;2.80;;;18.60;99.90;;;;;;5067677;28;20098;-64
2022/06/29 06:44:17;;;;;;;2.83;2.63;;;18.70;99.90;;;;;;5067485;28;20536;-64
2022/06/29 06:46:48;;;;;;;3.05;2.47;;;18.80;99.90;;;;;;5067929;28;20071;-64
2022/06/29 06:49:22;;;;;;;8.47;2.70;;;18.80;99.90;;;;;;5067884;28;20048;-64
2022/06/29 06:51:48;;;;;;;5.80;2.40;;;18.90;99.90;;;;;;5067279;28;20054;-64
2022/06/29 06:54:14;;;;;;;6.32;2.40;;;19.00;99.90;;;;;;5067831;28;20049;-64
2022/06/29 06:56:40;;;;;;;2.35;2.15;;;19.00;99.90;;;;;;5065977;28;20044;-64
2022/06/29 06:59:05;;;;;;;2.55;2.35;;;19.30;99.90;;;;;;5067988;28;20511;-64
2022/06/29 07:01:31;;;;;;;2.92;2.10;;;19.20;99.90;;;;;;5067811;28;20106;-64
2022/06/29 07:03:56;;;;;;;5.85;2.50;;;19.20;99.90;;;;;;5066533;28;20044;-64
2022/06/29 07:06:22;;;;;;;2.40;2.17;;;19.40;99.90;;;;;;5067588;28;20455;-64
2022/06/29 07:08:49;;;;;;;3.38;2.55;;;19.40;99.90;;;;;;5067051;28;20496;-64
2022/06/29 07:11:15;;;;;;;3.10;2.30;;;19.50;99.90;;;;;;5066594;28;20403;-64
2022/06/29 07:13:40;;;;;;;4.38;2.03;;;19.60;99.90;;;;;;5067618;28;20136;-64
2022/06/29 07:16:06;;;;;;;5.00;2.08;;;19.70;99.90;;;;;;5066537;28;20060;-64
2022/06/29 07:18:33;;;;;;;4.25;2.00;;;19.70;99.90;;;;;;5066410;28;20048;-64
2022/06/29 07:20:59;;;;;;;4.13;2.63;;;19.80;99.90;;;;;;5065976;28;20741;-65
2022/06/29 07:23:27;;;;;;;2.45;2.22;;;19.90;99.90;;;;;;5067175;28;20070;-64
2022/06/29 07:25:54;;;;;;;3.65;2.00;;;20.10;99.90;;;;;;5066512;28;20472;-64
2022/06/29 07:28:19;;;;;;;3.45;2.10;;;20.10;99.90;;;;;;5067221;28;20036;-64
2022/06/29 07:30:45;;;;;;;5.93;1.70;;;20.30;99.90;;;;;;5067260;28;20093;-64
2022/06/29 07:33:11;;;;;;;4.45;1.92;;;20.30;99.90;;;;;;5065087;28;20051;-64
2022/06/29 07:35:37;;;;;;;2.88;1.80;;;20.50;99.90;;;;;;5067633;28;20105;-64
2022/06/29 07:38:03;;;;;;;3.95;1.50;;;20.50;99.90;;;;;;5066565;28;20093;-64
2022/06/29 07:40:28;;;;;;;2.50;2.08;;;20.60;99.90;;;;;;5066426;28;20438;-65
2022/06/29 07:42:54;;;;;;;2.40;1.80;;;20.70;99.90;;;;;;5065758;28;20040;-64
2022/06/29 07:45:19;;;;;;;2.97;1.33;;;20.90;99.90;;;;;;5066818;28;20123;-64
2022/06/29 07:47:45;;;;;;;8.18;1.70;;;21.00;99.90;;;;;;5065879;28;20032;-64
2022/06/29 07:50:12;;;;;;;3.40;1.63;;;21.00;99.90;;;;;;5066676;28;20463;-64
2022/06/29 07:52:39;;;;;;;3.92;1.50;;;21.10;99.90;;;;;;5067159;28;20041;-64
2022/06/29 07:55:05;;;;;;;2.95;1.63;;;21.20;99.90;;;;;;5066223;28;20044;-63
2022/06/29 07:57:30;;;;;;;4.97;1.73;;;21.30;99.90;;;;;;5066560;28;20055;-65
2022/06/29 07:59:56;;;;;;;2.00;1.48;;;21.40;99.90;;;;;;5066130;28;20048;-64
2022/06/29 08:02:21;;;;;;;2.88;1.52;;;21.50;99.90;;;;;;5065862;28;20049;-64
2022/06/29 08:04:47;;;;;;;4.75;1.55;;;21.50;99.90;;;;;;5066066;28;20380;-64
2022/06/29 08:07:13;;;;;;;2.58;1.55;;;21.70;99.90;;;;;;5064395;28;20121;-64
2022/06/29 08:09:39;;;;;;;3.95;1.92;;;21.70;99.90;;;;;;5065717;28;20522;-64
2022/06/29 08:12:05;;;;;;;1.88;1.35;;;21.80;99.90;;;;;;5066382;28;20443;-64
2022/06/29 08:14:31;;;;;;;1.85;1.60;;;21.90;99.90;;;;;;5063993;28;20052;-64
2022/06/29 08:16:56;;;;;;;4.38;2.03;;;21.90;99.90;;;;;;5064596;28;20059;-64
2022/06/29 08:19:22;;;;;;;1.48;1.33;;;22.00;99.90;;;;;;5066009;28;20499;-64
2022/06/29 08:21:48;;;;;;;3.25;1.77;;;22.10;99.90;;;;;;5064033;28;20045;-64
2022/06/29 08:24:14;;;;;;;2.63;1.73;;;22.10;99.90;;;;;;5066405;28;20040;-64
2022/06/29 08:26:39;;;;;;;3.50;1.77;;;22.20;99.90;;;;;;5066139;28;20135;-64
2022/06/29 08:29:05;;;;;;;10.82;1.52;;;22.20;99.90;;;;;;5065455;28;20309;-65
2022/06/29 08:31:31;;;;;;;3.42;1.58;;;22.30;99.90;;;;;;5066135;28;20082;-64
2022/06/29 08:33:56;;;;;;;1.95;1.45;;;22.30;99.90;;;;;;5065757;28;20041;-64
2022/06/29 08:36:22;;;;;;;2.85;1.30;;;22.40;99.90;;;;;;5065334;28;20087;-65
2022/06/29 08:38:48;;;;;;;2.38;1.55;;;22.50;99.90;;;;;;5065842;28;20286;-64
2022/06/29 08:41:15;;;;;;;7.57;1.92;;;22.50;99.90;;;;;;5065975;28;20130;-65
2022/06/29 08:43:42;;;;;;;5.13;1.67;;;22.60;99.90;;;;;;5065222;28;20040;-64
2022/06/29 08:46:07;;;;;;;2.60;1.52;;;22.70;99.90;;;;;;5066051;28;20079;-64
2022/06/29 08:48:33;;;;;;;2.42;1.17;;;22.70;99.90;;;;;;5065631;28;20651;-64
2022/06/29 08:50:59;;;;;;;4.50;1.67;;;22.70;99.90;;;;;;5064629;28;20539;-64
2022/06/29 08:53:24;;;;;;;5.50;1.58;;;22.90;99.90;;;;;;5065589;28;20037;-64
2022/06/29 08:55:54;;;;;;;2.90;1.40;;;22.90;99.90;;;;;;5065300;28;20317;-64
2022/06/29 08:58:23;;;;;;;3.65;1.80;;;22.90;99.90;;;;;;5064957;28;20053;-64
2022/06/29 09:00:49;;;;;;;3.58;1.75;;;22.90;99.90;;;;;;5065544;28;20159;-65
2022/06/29 09:03:17;;;;;;;1.55;1.45;;;22.90;99.90;;;;;;5065318;28;20119;-64
2022/06/29 09:05:47;;;;;;;2.55;1.63;;;22.90;99.90;;;;;;5065568;28;20106;-65
2022/06/29 09:08:13;;;;;;;2.28;1.63;;;22.90;99.90;;;;;;5065598;28;20094;-64
2022/06/29 09:10:39;;;;;;;2.97;1.45;;;23.00;99.90;;;;;;5065408;28;20056;-64
2022/06/29 09:13:05;;;;;;;2.90;1.60;;;23.00;99.90;;;;;;5065773;28;20432;-64
2022/06/29 09:15:33;;;;;;;1.60;1.48;;;23.00;99.90;;;;;;5065434;28;20048;-65
2022/06/29 09:18:00;;;;;;;2.03;1.60;;;23.00;99.90;;;;;;5064152;28;20925;-64
2022/06/29 09:20:40;;;;;;;2.92;1.67;;;23.10;99.90;;;;;;5064175;28;20055;-64
2022/06/29 09:23:09;;;;;;;6.78;1.60;;;23.40;99.90;;;;;;5065724;28;20059;-65
2022/06/29 09:25:39;;;;;;;2.83;1.50;;;23.50;99.90;;;;;;5065316;28;20048;-65
2022/06/29 09:28:19;;;;;;;4.13;1.50;;;23.60;99.90;;;;;;5065789;28;20379;-65
2022/06/29 09:30:44;;;;;;;3.25;2.05;;;23.70;99.90;;;;;;5064354;28;20552;-64
2022/06/29 09:33:11;;;;;;;6.25;1.38;;;23.80;99.90;;;;;;5063209;28;20044;-65
2022/06/29 09:35:38;;;;;;;1.50;1.40;;;23.80;99.90;;;;;;5066083;28;20071;-65
2022/06/29 09:38:24;;;;;;;3.97;1.50;;;23.90;99.90;;;;;;5065165;28;20040;-65
2022/06/29 09:41:06;;;;;;;3.72;1.60;;;24.00;99.90;;;;;;5064580;28;20621;-64
2022/06/29 09:43:35;;;;;;;7.93;1.40;;;24.10;99.90;;;;;;5065416;28;20040;-65
2022/06/29 09:46:02;;;;;;;3.63;1.40;;;24.20;99.90;;;;;;5063958;28;20052;-64
2022/06/29 09:48:28;;;;;;;3.67;1.40;;;24.30;99.90;;;;;;5065413;28;20045;-65
2022/06/29 09:50:55;;;;;;;1.65;1.40;;;24.40;99.90;;;;;;5065293;28;20052;-65
2022/06/29 09:53:36;;;;;;;3.10;1.60;;;24.50;99.90;;;;;;5064107;28;20052;-65
2022/06/29 09:56:05;;;;;;;1.50;1.10;;;24.50;96.80;;;;;;5064680;28;20060;-65
2022/06/29 09:58:41;;;;;;;2.05;1.55;;;24.50;99.90;;;;;;5063696;28;20080;-65
2022/06/29 10:03:55;;;;;;;2.72;1.60;;;24.60;99.90;;;;;;5064739;28;20124;-64
2022/06/29 10:06:22;;;;;;;3.03;1.85;;;24.50;98.00;;;;;;5068094;28;20101;-65
2022/06/29 10:08:48;;;;;;;2.22;1.75;;;24.40;97.40;;;;;;5067820;28;20492;-64
2022/06/29 10:14:58;;;;;;;2.42;1.48;;;24.30;95.90;;;;;;5067548;28;20411;-64
2022/06/29 10:17:42;;;;;;;3.75;1.63;;;24.40;98.50;;;;;;5068237;28;20041;-65
2022/06/29 10:20:20;;;;;;;2.97;1.80;;;24.50;99.90;;;;;;5068897;28;20411;-65
2022/06/29 10:22:45;;;;;;;1.50;1.40;;;24.60;99.00;;;;;;5067442;28;20076;-64
2022/06/29 10:25:12;;;;;;;1.83;1.52;;;24.70;99.90;;;;;;5068308;28;20163;-64
2022/06/29 10:27:38;;;;;;;1.58;1.40;;;24.80;99.90;;;;;;5068628;28;20448;-64
2022/06/29 10:30:24;;;;;;;2.60;1.40;;;25.00;99.90;;;;;;5067222;28;20090;-64
2022/06/29 10:32:50;;;;;;;2.53;1.90;;;25.10;99.20;;;;;;5067753;28;20076;-64
2022/06/29 10:35:17;;;;;;;1.75;1.48;;;25.10;97.90;;;;;;5067442;28;20046;-64
2022/06/29 10:37:51;;;;;;;1.67;1.55;;;25.20;97.10;;;;;;5067979;28;20496;-64
2022/06/29 10:40:22;;;;;;;2.35;1.20;;;25.30;95.80;;;;;;5068181;28;20119;-64
2022/06/29 10:45:38;;;;;;;2.42;1.40;;;25.40;96.50;;;;;;5067723;28;20060;-64
2022/06/29 10:48:07;;;;;;;1.50;1.13;;;25.50;93.50;;;;;;5067854;28;20740;-64
2022/06/29 10:50:40;;;;;;;5.18;1.50;;;25.60;91.10;;;;;;5067242;28;20094;-65
2022/06/29 10:53:17;;;;;;;1.55;1.15;;;25.60;86.80;;;;;;5068056;28;20392;-64
2022/06/29 10:55:54;;;;;;;2.35;1.48;;;25.60;78.40;;;;;;5067688;28;20053;-65
2022/06/29 10:58:20;;;;;;;1.70;1.60;;;25.50;80.80;;;;;;5067596;28;20462;-64
2022/06/29 11:00:52;;;;;;;6.47;2.00;;;25.40;79.90;;;;;;5066074;28;20481;-65
2022/06/29 11:03:26;;;;;;;2.15;1.52;;;25.30;82.50;;;;;;5066760;28;20054;-64
2022/06/29 11:16:55;;;;;;;2.72;1.40;;;25.50;81.60;;;;;;5066574;28;20052;-65
2022/06/29 11:19:28;;;;;;;2.47;1.40;;;25.70;75.70;;;;;;5067353;28;20094;-65
2022/06/29 11:22:10;;;;;;;2.92;1.73;;;26.00;75.00;;;;;;5067081;28;20044;-64
2022/06/29 11:24:59;;;;;;;1.90;1.23;;;26.00;75.40;;;;;;5067150;28;20114;-65
2022/06/29 11:27:32;;;;;;;4.07;1.13;;;26.10;79.90;;;;;;5067133;28;20431;-64
2022/06/29 11:29:58;;;;;;;1.60;1.50;;;26.20;75.20;;;;;;5065970;28;20060;-65
2022/06/29 11:32:42;;;;;;;1.23;1.13;;;26.20;76.20;;;;;;5066245;28;20517;-64
2022/06/29 11:35:09;;;;;;;2.55;1.58;;;26.30;72.10;;;;;;5067284;28;20090;-65
2022/06/29 11:37:34;;;;;;;2.40;1.40;;;26.30;73.80;;;;;;5066676;28;20572;-65
2022/06/29 11:40:00;;;;;;;1.70;1.30;;;26.30;72.80;;;;;;5065994;28;20119;-65
2022/06/29 11:45:15;;;;;;;1.23;1.05;;;26.40;72.70;;;;;;5065838;28;20045;-64
2022/06/29 11:47:53;;;;;;;2.25;1.60;;;26.50;72.60;;;;;;5066717;28;20514;-65
2022/06/29 11:50:21;;;;;;;3.08;1.05;;;26.50;72.20;;;;;;5066834;28;20055;-65
2022/06/29 11:52:49;;;;;;;1.90;1.20;;;26.50;70.00;;;;;;5065695;28;20036;-64
2022/06/29 11:55:15;;;;;;;2.50;1.15;;;26.60;69.40;;;;;;5066602;28;20084;-64
2022/06/29 11:57:41;;;;;;;1.42;1.00;;;26.60;66.30;;;;;;5066274;28;20084;-64
2022/06/29 12:00:09;;;;;;;1.17;1.05;;;26.60;65.40;;;;;;5064987;28;20052;-65
2022/06/29 12:02:34;;;;;;;1.90;1.30;;;26.70;65.90;;;;;;5066498;28;20088;-64
2022/06/29 12:05:02;;;;;;;2.03;0.90;;;26.70;67.30;;;;;;5065903;28;20072;-64
2022/06/29 12:07:31;;;;;;;1.80;1.45;;;26.80;67.50;;;;;;5065847;28;20053;-64
2022/06/29 12:09:58;;;;;;;0.90;0.90;;;26.90;66.50;;;;;;5066017;28;20078;-64
2022/06/29 12:12:23;;;;;;;2.60;1.20;;;27.00;66.30;;;;;;5066381;28;20044;-64
2022/06/29 12:14:49;;;;;;;2.92;1.27;;;27.10;66.80;;;;;;5065199;28;20093;-65
2022/06/29 12:17:15;;;;;;;1.88;1.20;;;27.20;65.40;;;;;;5066134;28;20445;-64
2022/06/29 12:19:46;;;;;;;1.40;1.30;;;27.20;64.70;;;;;;5066253;28;20094;-64
2022/06/29 12:22:12;;;;;;;3.33;1.30;;;27.40;65.80;;;;;;5065695;28;20076;-65
2022/06/29 12:24:39;;;;;;;1.60;1.30;;;27.40;64.10;;;;;;5066632;28;20080;-65
2022/06/29 12:27:05;;;;;;;4.88;1.33;;;27.50;63.60;;;;;;5065916;28;20496;-64
2022/06/29 12:29:31;;;;;;;1.60;1.50;;;27.40;62.60;;;;;;5065242;28;20064;-65
2022/06/29 12:31:57;;;;;;;1.63;1.02;;;27.40;62.70;;;;;;5064148;28;20423;-65
2022/06/29 12:34:22;;;;;;;2.47;1.48;;;27.40;61.50;;;;;;5065005;28;20455;-64
2022/06/29 12:36:48;;;;;;;2.15;1.27;;;27.40;64.00;;;;;;5065873;28;20465;-65
2022/06/29 12:39:13;;;;;;;1.70;1.60;;;27.50;63.40;;;;;;5066209;28;20040;-64
2022/06/29 12:41:40;;;;;;;1.88;1.67;;;27.50;62.60;;;;;;5064148;28;20048;-65
2022/06/29 12:44:06;;;;;;;1.65;1.55;;;27.50;64.00;;;;;;5065990;28;20370;-65
2022/06/29 12:46:33;;;;;;;1.70;1.35;;;27.60;63.40;;;;;;5065791;28;20094;-64
2022/06/29 12:49:03;;;;;;;1.67;1.55;;;27.60;64.30;;;;;;5063641;28;20084;-64
2022/06/29 12:51:30;;;;;;;1.77;1.67;;;27.60;65.20;;;;;;5064738;28;20502;-65
2022/06/29 12:53:55;;;;;;;2.72;1.90;;;27.70;65.60;;;;;;5065520;28;20044;-65
2022/06/29 12:56:21;;;;;;;1.60;1.50;;;27.70;65.50;;;;;;5064753;28;20222;-65
2022/06/29 12:58:46;;;;;;;1.98;1.80;;;27.80;65.90;;;;;;5065614;28;20098;-65
2022/06/29 13:01:12;;;;;;;1.52;1.42;;;27.90;67.90;;;;;;5064446;28;20055;-65
2022/06/29 13:03:38;;;;;;;2.20;1.65;;;28.00;64.70;;;;;;5065574;28;20055;-65
2022/06/29 13:06:05;;;;;;;2.45;1.70;;;28.00;65.00;;;;;;5065542;28;20064;-65
2022/06/29 13:08:31;;;;;;;2.00;1.80;;;28.00;66.10;;;;;;5064342;28;20087;-65
2022/06/29 13:10:59;;;;;;;2.42;1.67;;;28.10;65.00;;;;;;5064696;28;20072;-64
2022/06/29 13:13:25;;;;;;;1.63;1.52;;;28.10;64.30;;;;;;5065288;28;20495;-65